sensor_id;sensor_type;location;lat;lon;timestamp;P1;durP1;ratioP1;P2;durP2;ratioP2
42430;SDS011;71905;47.466;19.024;2024-02-04T00:00:50;1.75;;;0.85;;
42430;SDS011;71905;47.466;19.024;2024-02-04T00:03:18;1.75;;;0.90;;
42430;SDS011;71905;47.466;19.024;2024-02-04T00:05:48;1.50;;;0.80;;
42430;SDS011;71905;47.466;19.024;2024-02-04T00:08:17;2.30;;;0.80;;
42430;SDS011;71905;47.466;19.024;2024-02-04T00:10:45;2.10;;;1.10;;
42430;SDS011;71905;47.466;19.024;2024-02-04T00:13:13;1.98;;;1.10;;
42430;SDS011;71905;47.466;19.024;2024-02-04T00:15:41;2.53;;;0.75;;
42430;SDS011;71905;47.466;19.024;2024-02-04T00:18:10;2.42;;;0.90;;
42430;SDS011;71905;47.466;19.024;2024-02-04T00:20:39;1.08;;;0.75;;
42430;SDS011;71905;47.466;19.024;2024-02-04T00:23:07;1.77;;;1.20;;
42430;SDS011;71905;47.466;19.024;2024-02-04T00:25:35;1.30;;;0.80;;
42430;SDS011;71905;47.466;19.024;2024-02-04T00:28:04;1.25;;;0.80;;
42430;SDS011;71905;47.466;19.024;2024-02-04T00:30:33;1.90;;;0.82;;
42430;SDS011;71905;47.466;19.024;2024-02-04T00:33:01;3.90;;;1.20;;
42430;SDS011;71905;47.466;19.024;2024-02-04T00:35:31;1.65;;;1.00;;
42430;SDS011;71905;47.466;19.024;2024-02-04T00:37:59;1.77;;;1.00;;
42430;SDS011;71905;47.466;19.024;2024-02-04T00:40:29;1.85;;;1.02;;
42430;SDS011;71905;47.466;19.024;2024-02-04T00:43:00;2.13;;;0.90;;
42430;SDS011;71905;47.466;19.024;2024-02-04T00:45:28;1.95;;;0.90;;
42430;SDS011;71905;47.466;19.024;2024-02-04T00:47:56;2.47;;;1.20;;
42430;SDS011;71905;47.466;19.024;2024-02-04T00:50:24;1.83;;;0.70;;
42430;SDS011;71905;47.466;19.024;2024-02-04T00:52:54;2.30;;;0.90;;
42430;SDS011;71905;47.466;19.024;2024-02-04T00:55:22;1.85;;;0.80;;
42430;SDS011;71905;47.466;19.024;2024-02-04T00:57:50;2.20;;;0.88;;
42430;SDS011;71905;47.466;19.024;2024-02-04T01:00:19;2.08;;;1.23;;
42430;SDS011;71905;47.466;19.024;2024-02-04T01:02:47;1.40;;;0.98;;
42430;SDS011;71905;47.466;19.024;2024-02-04T01:05:15;1.90;;;0.90;;
42430;SDS011;71905;47.466;19.024;2024-02-04T01:07:43;2.72;;;0.90;;
42430;SDS011;71905;47.466;19.024;2024-02-04T01:10:13;1.63;;;0.70;;
42430;SDS011;71905;47.466;19.024;2024-02-04T01:12:41;1.67;;;0.70;;
42430;SDS011;71905;47.466;19.024;2024-02-04T01:15:09;1.42;;;1.00;;
42430;SDS011;71905;47.466;19.024;2024-02-04T01:17:37;2.78;;;1.00;;
42430;SDS011;71905;47.466;19.024;2024-02-04T01:20:06;2.13;;;0.82;;
42430;SDS011;71905;47.466;19.024;2024-02-04T01:22:35;1.65;;;1.02;;
42430;SDS011;71905;47.466;19.024;2024-02-04T01:25:03;2.03;;;0.85;;
42430;SDS011;71905;47.466;19.024;2024-02-04T01:27:34;1.83;;;0.80;;
42430;SDS011;71905;47.466;19.024;2024-02-04T01:30:03;1.83;;;0.95;;
42430;SDS011;71905;47.466;19.024;2024-02-04T01:32:34;1.52;;;0.82;;
42430;SDS011;71905;47.466;19.024;2024-02-04T01:35:03;1.80;;;0.90;;
42430;SDS011;71905;47.466;19.024;2024-02-04T01:37:31;2.13;;;0.90;;
42430;SDS011;71905;47.466;19.024;2024-02-04T01:39:59;1.73;;;0.98;;
42430;SDS011;71905;47.466;19.024;2024-02-04T01:42:28;1.30;;;0.82;;
42430;SDS011;71905;47.466;19.024;2024-02-04T01:44:57;1.42;;;0.90;;
42430;SDS011;71905;47.466;19.024;2024-02-04T01:47:25;1.95;;;0.90;;
42430;SDS011;71905;47.466;19.024;2024-02-04T01:49:53;1.80;;;0.90;;
42430;SDS011;71905;47.466;19.024;2024-02-04T01:52:22;1.85;;;1.00;;
42430;SDS011;71905;47.466;19.024;2024-02-04T01:54:50;3.38;;;1.17;;
42430;SDS011;71905;47.466;19.024;2024-02-04T01:57:20;1.65;;;1.00;;
42430;SDS011;71905;47.466;19.024;2024-02-04T01:59:48;2.22;;;0.95;;
42430;SDS011;71905;47.466;19.024;2024-02-04T02:02:19;1.92;;;1.10;;
42430;SDS011;71905;47.466;19.024;2024-02-04T02:04:48;2.75;;;1.30;;
42430;SDS011;71905;47.466;19.024;2024-02-04T02:07:16;1.83;;;1.00;;
42430;SDS011;71905;47.466;19.024;2024-02-04T02:09:47;3.28;;;1.50;;
42430;SDS011;71905;47.466;19.024;2024-02-04T02:12:17;2.20;;;1.30;;
42430;SDS011;71905;47.466;19.024;2024-02-04T02:14:48;2.75;;;1.30;;
42430;SDS011;71905;47.466;19.024;2024-02-04T02:17:24;1.85;;;1.33;;
42430;SDS011;71905;47.466;19.024;2024-02-04T02:20:01;3.10;;;1.42;;
42430;SDS011;71905;47.466;19.024;2024-02-04T02:22:38;2.50;;;1.33;;
42430;SDS011;71905;47.466;19.024;2024-02-04T02:25:14;3.70;;;1.48;;
42430;SDS011;71905;47.466;19.024;2024-02-04T02:27:47;3.05;;;1.50;;
42430;SDS011;71905;47.466;19.024;2024-02-04T02:30:16;2.40;;;1.50;;
42430;SDS011;71905;47.466;19.024;2024-02-04T02:32:44;2.97;;;1.48;;
42430;SDS011;71905;47.466;19.024;2024-02-04T02:35:14;2.15;;;1.60;;
42430;SDS011;71905;47.466;19.024;2024-02-04T02:37:43;2.92;;;1.60;;
42430;SDS011;71905;47.466;19.024;2024-02-04T02:40:19;2.20;;;1.40;;
42430;SDS011;71905;47.466;19.024;2024-02-04T02:42:50;1.95;;;1.50;;
42430;SDS011;71905;47.466;19.024;2024-02-04T02:45:21;3.00;;;1.70;;
42430;SDS011;71905;47.466;19.024;2024-02-04T02:47:51;1.95;;;1.60;;
42430;SDS011;71905;47.466;19.024;2024-02-04T02:50:21;3.28;;;1.80;;
42430;SDS011;71905;47.466;19.024;2024-02-04T02:52:49;2.45;;;1.83;;
42430;SDS011;71905;47.466;19.024;2024-02-04T02:55:19;2.90;;;2.10;;
42430;SDS011;71905;47.466;19.024;2024-02-04T02:57:47;2.63;;;1.90;;
42430;SDS011;71905;47.466;19.024;2024-02-04T03:00:15;2.65;;;1.92;;
42430;SDS011;71905;47.466;19.024;2024-02-04T03:02:44;2.53;;;1.90;;
42430;SDS011;71905;47.466;19.024;2024-02-04T03:05:12;3.03;;;1.85;;
42430;SDS011;71905;47.466;19.024;2024-02-04T03:07:41;3.15;;;1.85;;
42430;SDS011;71905;47.466;19.024;2024-02-04T03:10:09;3.63;;;2.03;;
42430;SDS011;71905;47.466;19.024;2024-02-04T03:12:39;2.63;;;1.70;;
42430;SDS011;71905;47.466;19.024;2024-02-04T03:15:07;2.80;;;1.92;;
42430;SDS011;71905;47.466;19.024;2024-02-04T03:17:36;2.42;;;1.90;;
42430;SDS011;71905;47.466;19.024;2024-02-04T03:20:04;4.00;;;1.80;;
42430;SDS011;71905;47.466;19.024;2024-02-04T03:22:33;2.95;;;1.95;;
42430;SDS011;71905;47.466;19.024;2024-02-04T03:25:01;2.22;;;1.60;;
42430;SDS011;71905;47.466;19.024;2024-02-04T03:27:29;2.58;;;1.60;;
42430;SDS011;71905;47.466;19.024;2024-02-04T03:29:58;2.53;;;1.67;;
42430;SDS011;71905;47.466;19.024;2024-02-04T03:32:28;3.13;;;1.92;;
42430;SDS011;71905;47.466;19.024;2024-02-04T03:35:00;2.47;;;1.77;;
42430;SDS011;71905;47.466;19.024;2024-02-04T03:37:30;2.95;;;1.70;;
42430;SDS011;71905;47.466;19.024;2024-02-04T03:39:58;2.85;;;1.83;;
42430;SDS011;71905;47.466;19.024;2024-02-04T03:42:26;2.33;;;1.70;;
42430;SDS011;71905;47.466;19.024;2024-02-04T03:44:55;2.17;;;1.67;;
42430;SDS011;71905;47.466;19.024;2024-02-04T03:47:25;2.72;;;1.65;;
42430;SDS011;71905;47.466;19.024;2024-02-04T03:49:53;3.50;;;1.90;;
42430;SDS011;71905;47.466;19.024;2024-02-04T03:52:21;2.35;;;1.80;;
42430;SDS011;71905;47.466;19.024;2024-02-04T03:54:49;2.33;;;1.45;;
42430;SDS011;71905;47.466;19.024;2024-02-04T03:57:18;2.33;;;1.50;;
42430;SDS011;71905;47.466;19.024;2024-02-04T03:59:45;2.38;;;1.45;;
42430;SDS011;71905;47.466;19.024;2024-02-04T04:02:13;4.07;;;1.70;;
42430;SDS011;71905;47.466;19.024;2024-02-04T04:04:43;2.60;;;1.80;;
42430;SDS011;71905;47.466;19.024;2024-02-04T04:07:14;2.67;;;1.63;;
42430;SDS011;71905;47.466;19.024;2024-02-04T04:09:43;2.78;;;1.80;;
42430;SDS011;71905;47.466;19.024;2024-02-04T04:12:11;2.60;;;1.80;;
42430;SDS011;71905;47.466;19.024;2024-02-04T04:14:39;2.47;;;1.60;;
42430;SDS011;71905;47.466;19.024;2024-02-04T04:17:07;2.92;;;1.77;;
42430;SDS011;71905;47.466;19.024;2024-02-04T04:19:35;2.83;;;1.63;;
42430;SDS011;71905;47.466;19.024;2024-02-04T04:22:05;2.33;;;1.70;;
42430;SDS011;71905;47.466;19.024;2024-02-04T04:24:33;2.63;;;1.52;;
42430;SDS011;71905;47.466;19.024;2024-02-04T04:27:01;3.25;;;1.90;;
42430;SDS011;71905;47.466;19.024;2024-02-04T04:29:29;3.03;;;2.00;;
42430;SDS011;71905;47.466;19.024;2024-02-04T04:31:56;2.72;;;1.90;;
42430;SDS011;71905;47.466;19.024;2024-02-04T04:34:24;2.97;;;1.98;;
42430;SDS011;71905;47.466;19.024;2024-02-04T04:36:52;2.70;;;1.80;;
42430;SDS011;71905;47.466;19.024;2024-02-04T04:39:22;3.95;;;2.20;;
42430;SDS011;71905;47.466;19.024;2024-02-04T04:41:50;3.15;;;2.22;;
42430;SDS011;71905;47.466;19.024;2024-02-04T04:44:18;3.10;;;2.05;;
42430;SDS011;71905;47.466;19.024;2024-02-04T04:46:46;3.70;;;2.25;;
42430;SDS011;71905;47.466;19.024;2024-02-04T04:49:14;3.03;;;2.10;;
42430;SDS011;71905;47.466;19.024;2024-02-04T04:51:44;3.10;;;2.13;;
42430;SDS011;71905;47.466;19.024;2024-02-04T04:54:12;4.13;;;2.53;;
42430;SDS011;71905;47.466;19.024;2024-02-04T04:56:42;3.15;;;2.30;;
42430;SDS011;71905;47.466;19.024;2024-02-04T04:59:10;2.80;;;2.20;;
42430;SDS011;71905;47.466;19.024;2024-02-04T05:01:44;3.10;;;2.40;;
42430;SDS011;71905;47.466;19.024;2024-02-04T05:04:13;4.03;;;2.10;;
42430;SDS011;71905;47.466;19.024;2024-02-04T05:06:41;3.95;;;2.10;;
42430;SDS011;71905;47.466;19.024;2024-02-04T05:09:10;3.60;;;2.40;;
42430;SDS011;71905;47.466;19.024;2024-02-04T05:11:38;3.38;;;2.50;;
42430;SDS011;71905;47.466;19.024;2024-02-04T05:14:07;3.13;;;2.13;;
42430;SDS011;71905;47.466;19.024;2024-02-04T05:16:35;2.78;;;2.10;;
42430;SDS011;71905;47.466;19.024;2024-02-04T05:19:03;2.65;;;1.95;;
42430;SDS011;71905;47.466;19.024;2024-02-04T05:21:31;3.00;;;2.00;;
42430;SDS011;71905;47.466;19.024;2024-02-04T05:23:59;2.22;;;1.90;;
42430;SDS011;71905;47.466;19.024;2024-02-04T05:26:27;3.38;;;2.25;;
42430;SDS011;71905;47.466;19.024;2024-02-04T05:28:55;2.70;;;2.13;;
42430;SDS011;71905;47.466;19.024;2024-02-04T05:31:25;3.47;;;2.33;;
42430;SDS011;71905;47.466;19.024;2024-02-04T05:33:53;3.63;;;2.22;;
42430;SDS011;71905;47.466;19.024;2024-02-04T05:36:21;2.53;;;1.85;;
42430;SDS011;71905;47.466;19.024;2024-02-04T05:38:49;3.28;;;1.88;;
42430;SDS011;71905;47.466;19.024;2024-02-04T05:41:17;2.78;;;2.15;;
42430;SDS011;71905;47.466;19.024;2024-02-04T05:43:45;2.50;;;1.83;;
42430;SDS011;71905;47.466;19.024;2024-02-04T05:46:13;2.40;;;1.90;;
42430;SDS011;71905;47.466;19.024;2024-02-04T05:48:43;3.13;;;2.10;;
42430;SDS011;71905;47.466;19.024;2024-02-04T05:51:14;3.65;;;2.05;;
42430;SDS011;71905;47.466;19.024;2024-02-04T05:53:42;2.03;;;1.65;;
42430;SDS011;71905;47.466;19.024;2024-02-04T05:56:10;2.70;;;1.70;;
42430;SDS011;71905;47.466;19.024;2024-02-04T05:58:39;3.17;;;1.80;;
42430;SDS011;71905;47.466;19.024;2024-02-04T06:01:07;2.45;;;1.65;;
42430;SDS011;71905;47.466;19.024;2024-02-04T06:03:35;3.70;;;1.63;;
42430;SDS011;71905;47.466;19.024;2024-02-04T06:06:05;2.92;;;1.70;;
42430;SDS011;71905;47.466;19.024;2024-02-04T06:08:33;2.17;;;1.50;;
42430;SDS011;71905;47.466;19.024;2024-02-04T06:11:01;2.28;;;1.65;;
42430;SDS011;71905;47.466;19.024;2024-02-04T06:13:29;2.45;;;1.58;;
42430;SDS011;71905;47.466;19.024;2024-02-04T06:15:57;2.40;;;1.65;;
42430;SDS011;71905;47.466;19.024;2024-02-04T06:18:25;2.30;;;1.50;;
42430;SDS011;71905;47.466;19.024;2024-02-04T06:20:53;2.35;;;1.85;;
42430;SDS011;71905;47.466;19.024;2024-02-04T06:23:23;1.90;;;1.52;;
42430;SDS011;71905;47.466;19.024;2024-02-04T06:25:51;2.00;;;1.70;;
42430;SDS011;71905;47.466;19.024;2024-02-04T06:28:19;2.85;;;1.95;;
42430;SDS011;71905;47.466;19.024;2024-02-04T06:30:48;2.30;;;1.70;;
42430;SDS011;71905;47.466;19.024;2024-02-04T06:33:16;2.10;;;1.55;;
42430;SDS011;71905;47.466;19.024;2024-02-04T06:35:44;2.38;;;1.63;;
42430;SDS011;71905;47.466;19.024;2024-02-04T06:38:12;4.07;;;1.85;;
42430;SDS011;71905;47.466;19.024;2024-02-04T06:40:41;3.17;;;1.70;;
42430;SDS011;71905;47.466;19.024;2024-02-04T06:43:09;2.70;;;1.88;;
42430;SDS011;71905;47.466;19.024;2024-02-04T06:45:37;3.67;;;1.77;;
42430;SDS011;71905;47.466;19.024;2024-02-04T06:48:06;2.50;;;1.80;;
42430;SDS011;71905;47.466;19.024;2024-02-04T06:50:35;2.28;;;1.52;;
42430;SDS011;71905;47.466;19.024;2024-02-04T06:53:03;2.67;;;1.80;;
42430;SDS011;71905;47.466;19.024;2024-02-04T06:55:31;2.33;;;1.52;;
42430;SDS011;71905;47.466;19.024;2024-02-04T06:58:01;3.05;;;1.70;;
42430;SDS011;71905;47.466;19.024;2024-02-04T07:00:29;2.75;;;1.70;;
42430;SDS011;71905;47.466;19.024;2024-02-04T07:02:57;2.47;;;1.52;;
42430;SDS011;71905;47.466;19.024;2024-02-04T07:05:25;2.80;;;1.75;;
42430;SDS011;71905;47.466;19.024;2024-02-04T07:07:53;2.40;;;1.90;;
42430;SDS011;71905;47.466;19.024;2024-02-04T07:10:21;3.80;;;1.63;;
42430;SDS011;71905;47.466;19.024;2024-02-04T07:12:49;2.25;;;1.50;;
42430;SDS011;71905;47.466;19.024;2024-02-04T07:15:18;2.42;;;1.60;;
42430;SDS011;71905;47.466;19.024;2024-02-04T07:17:47;2.55;;;1.40;;
42430;SDS011;71905;47.466;19.024;2024-02-04T07:20:15;2.53;;;1.85;;
42430;SDS011;71905;47.466;19.024;2024-02-04T07:22:43;3.25;;;1.60;;
42430;SDS011;71905;47.466;19.024;2024-02-04T07:25:11;2.97;;;1.50;;
42430;SDS011;71905;47.466;19.024;2024-02-04T07:27:39;2.55;;;1.58;;
42430;SDS011;71905;47.466;19.024;2024-02-04T07:30:07;2.08;;;1.45;;
42430;SDS011;71905;47.466;19.024;2024-02-04T07:32:37;2.38;;;1.70;;
42430;SDS011;71905;47.466;19.024;2024-02-04T07:35:05;3.05;;;1.30;;
42430;SDS011;71905;47.466;19.024;2024-02-04T07:37:35;2.08;;;1.60;;
42430;SDS011;71905;47.466;19.024;2024-02-04T07:40:04;3.40;;;1.45;;
42430;SDS011;71905;47.466;19.024;2024-02-04T07:42:33;1.90;;;1.20;;
42430;SDS011;71905;47.466;19.024;2024-02-04T07:45:01;2.95;;;1.88;;
42430;SDS011;71905;47.466;19.024;2024-02-04T07:47:36;1.63;;;1.08;;
42430;SDS011;71905;47.466;19.024;2024-02-04T07:50:05;3.08;;;1.50;;
42430;SDS011;71905;47.466;19.024;2024-02-04T07:52:34;2.10;;;1.10;;
42430;SDS011;71905;47.466;19.024;2024-02-04T07:55:02;2.95;;;1.10;;
42430;SDS011;71905;47.466;19.024;2024-02-04T07:57:30;1.65;;;1.20;;
42430;SDS011;71905;47.466;19.024;2024-02-04T07:59:59;1.50;;;1.00;;
42430;SDS011;71905;47.466;19.024;2024-02-04T08:02:39;1.55;;;1.05;;
42430;SDS011;71905;47.466;19.024;2024-02-04T08:05:07;2.13;;;1.30;;
42430;SDS011;71905;47.466;19.024;2024-02-04T08:07:36;2.00;;;1.20;;
42430;SDS011;71905;47.466;19.024;2024-02-04T08:10:08;1.92;;;1.02;;
42430;SDS011;71905;47.466;19.024;2024-02-04T08:12:36;2.10;;;1.33;;
42430;SDS011;71905;47.466;19.024;2024-02-04T08:15:05;2.00;;;1.38;;
42430;SDS011;71905;47.466;19.024;2024-02-04T08:17:36;1.75;;;1.20;;
42430;SDS011;71905;47.466;19.024;2024-02-04T08:20:06;2.47;;;1.30;;
42430;SDS011;71905;47.466;19.024;2024-02-04T08:22:35;2.05;;;1.25;;
42430;SDS011;71905;47.466;19.024;2024-02-04T08:25:06;2.20;;;1.30;;
42430;SDS011;71905;47.466;19.024;2024-02-04T08:27:37;2.25;;;1.42;;
42430;SDS011;71905;47.466;19.024;2024-02-04T08:30:06;1.80;;;1.38;;
42430;SDS011;71905;47.466;19.024;2024-02-04T08:32:36;2.15;;;1.20;;
42430;SDS011;71905;47.466;19.024;2024-02-04T08:35:06;1.65;;;1.10;;
42430;SDS011;71905;47.466;19.024;2024-02-04T08:37:34;1.70;;;1.25;;
42430;SDS011;71905;47.466;19.024;2024-02-04T08:40:05;2.10;;;1.52;;
42430;SDS011;71905;47.466;19.024;2024-02-04T08:42:34;2.47;;;1.50;;
42430;SDS011;71905;47.466;19.024;2024-02-04T08:45:02;2.33;;;1.40;;
42430;SDS011;71905;47.466;19.024;2024-02-04T08:47:32;2.13;;;1.48;;
42430;SDS011;71905;47.466;19.024;2024-02-04T08:50:00;2.45;;;1.67;;
42430;SDS011;71905;47.466;19.024;2024-02-04T08:52:30;3.88;;;1.70;;
42430;SDS011;71905;47.466;19.024;2024-02-04T08:54:58;2.55;;;1.80;;
42430;SDS011;71905;47.466;19.024;2024-02-04T08:57:27;1.67;;;1.23;;
42430;SDS011;71905;47.466;19.024;2024-02-04T08:59:55;2.45;;;1.45;;
42430;SDS011;71905;47.466;19.024;2024-02-04T09:02:25;1.88;;;1.33;;
42430;SDS011;71905;47.466;19.024;2024-02-04T09:04:53;2.00;;;1.30;;
42430;SDS011;71905;47.466;19.024;2024-02-04T09:07:24;4.30;;;1.60;;
42430;SDS011;71905;47.466;19.024;2024-02-04T09:09:54;3.70;;;1.60;;
42430;SDS011;71905;47.466;19.024;2024-02-04T09:12:22;2.92;;;1.30;;
42430;SDS011;71905;47.466;19.024;2024-02-04T09:14:50;1.80;;;1.17;;
42430;SDS011;71905;47.466;19.024;2024-02-04T09:17:18;2.50;;;1.50;;
42430;SDS011;71905;47.466;19.024;2024-02-04T09:19:46;1.98;;;1.23;;
42430;SDS011;71905;47.466;19.024;2024-02-04T09:22:16;1.95;;;1.00;;
42430;SDS011;71905;47.466;19.024;2024-02-04T09:24:44;2.40;;;1.00;;
42430;SDS011;71905;47.466;19.024;2024-02-04T09:27:14;2.13;;;1.10;;
42430;SDS011;71905;47.466;19.024;2024-02-04T09:29:42;1.63;;;1.05;;
42430;SDS011;71905;47.466;19.024;2024-02-04T09:32:10;1.88;;;1.27;;
42430;SDS011;71905;47.466;19.024;2024-02-04T09:34:41;3.40;;;1.10;;
42430;SDS011;71905;47.466;19.024;2024-02-04T09:37:09;2.15;;;0.90;;
42430;SDS011;71905;47.466;19.024;2024-02-04T09:39:37;1.77;;;0.90;;
42430;SDS011;71905;47.466;19.024;2024-02-04T09:42:05;2.30;;;1.15;;
42430;SDS011;71905;47.466;19.024;2024-02-04T09:44:35;1.88;;;1.00;;
42430;SDS011;71905;47.466;19.024;2024-02-04T09:47:05;1.67;;;0.90;;
42430;SDS011;71905;47.466;19.024;2024-02-04T09:49:36;1.63;;;0.93;;
42430;SDS011;71905;47.466;19.024;2024-02-04T09:52:06;2.35;;;0.90;;
42430;SDS011;71905;47.466;19.024;2024-02-04T09:54:38;1.50;;;0.85;;
42430;SDS011;71905;47.466;19.024;2024-02-04T09:57:11;2.75;;;1.13;;
42430;SDS011;71905;47.466;19.024;2024-02-04T09:59:44;1.50;;;0.90;;
42430;SDS011;71905;47.466;19.024;2024-02-04T10:02:14;2.58;;;0.90;;
42430;SDS011;71905;47.466;19.024;2024-02-04T10:04:47;3.95;;;1.00;;
42430;SDS011;71905;47.466;19.024;2024-02-04T10:07:17;1.88;;;0.80;;
42430;SDS011;71905;47.466;19.024;2024-02-04T10:09:46;2.13;;;1.10;;
42430;SDS011;71905;47.466;19.024;2024-02-04T10:12:14;1.60;;;1.10;;
42430;SDS011;71905;47.466;19.024;2024-02-04T10:14:42;2.80;;;0.90;;
42430;SDS011;71905;47.466;19.024;2024-02-04T10:17:12;2.45;;;0.93;;
42430;SDS011;71905;47.466;19.024;2024-02-04T10:19:41;3.63;;;1.00;;
42430;SDS011;71905;47.466;19.024;2024-02-04T10:22:09;1.38;;;0.90;;
42430;SDS011;71905;47.466;19.024;2024-02-04T10:24:40;1.75;;;0.85;;
42430;SDS011;71905;47.466;19.024;2024-02-04T10:27:11;2.65;;;0.70;;
42430;SDS011;71905;47.466;19.024;2024-02-04T10:29:54;2.75;;;0.90;;
42430;SDS011;71905;47.466;19.024;2024-02-04T10:32:24;1.80;;;0.90;;
42430;SDS011;71905;47.466;19.024;2024-02-04T10:34:52;1.35;;;0.90;;
42430;SDS011;71905;47.466;19.024;2024-02-04T10:37:20;1.45;;;0.80;;
42430;SDS011;71905;47.466;19.024;2024-02-04T10:39:48;1.08;;;0.65;;
42430;SDS011;71905;47.466;19.024;2024-02-04T10:42:17;2.13;;;1.00;;
42430;SDS011;71905;47.466;19.024;2024-02-04T10:44:47;1.52;;;0.77;;
42430;SDS011;71905;47.466;19.024;2024-02-04T10:47:21;1.15;;;0.77;;
42430;SDS011;71905;47.466;19.024;2024-02-04T10:49:53;2.40;;;0.75;;
42430;SDS011;71905;47.466;19.024;2024-02-04T10:52:22;2.25;;;0.85;;
42430;SDS011;71905;47.466;19.024;2024-02-04T10:54:51;1.38;;;0.73;;
42430;SDS011;71905;47.466;19.024;2024-02-04T10:57:20;2.42;;;0.90;;
42430;SDS011;71905;47.466;19.024;2024-02-04T10:59:49;1.50;;;0.80;;
42430;SDS011;71905;47.466;19.024;2024-02-04T11:02:19;1.38;;;0.63;;
42430;SDS011;71905;47.466;19.024;2024-02-04T11:04:48;1.23;;;0.73;;
42430;SDS011;71905;47.466;19.024;2024-02-04T11:07:22;1.08;;;0.70;;
42430;SDS011;71905;47.466;19.024;2024-02-04T11:09:50;2.67;;;0.88;;
42430;SDS011;71905;47.466;19.024;2024-02-04T11:12:20;1.60;;;0.82;;
42430;SDS011;71905;47.466;19.024;2024-02-04T11:14:50;2.28;;;0.70;;
42430;SDS011;71905;47.466;19.024;2024-02-04T11:17:26;1.13;;;0.70;;
42430;SDS011;71905;47.466;19.024;2024-02-04T11:20:17;1.60;;;0.88;;
42430;SDS011;71905;47.466;19.024;2024-02-04T11:23:09;3.80;;;0.82;;
42430;SDS011;71905;47.466;19.024;2024-02-04T11:25:54;1.80;;;0.77;;
42430;SDS011;71905;47.466;19.024;2024-02-04T11:28:26;1.40;;;0.70;;
42430;SDS011;71905;47.466;19.024;2024-02-04T11:30:54;1.85;;;0.90;;
42430;SDS011;71905;47.466;19.024;2024-02-04T11:33:23;1.58;;;0.80;;
42430;SDS011;71905;47.466;19.024;2024-02-04T11:36:02;1.50;;;0.90;;
42430;SDS011;71905;47.466;19.024;2024-02-04T11:38:35;1.20;;;0.70;;
42430;SDS011;71905;47.466;19.024;2024-02-04T11:41:04;2.45;;;0.70;;
42430;SDS011;71905;47.466;19.024;2024-02-04T11:43:32;1.35;;;0.60;;
42430;SDS011;71905;47.466;19.024;2024-02-04T11:46:02;1.23;;;0.60;;
42430;SDS011;71905;47.466;19.024;2024-02-04T11:48:32;1.25;;;0.60;;
42430;SDS011;71905;47.466;19.024;2024-02-04T11:51:04;1.65;;;0.60;;
42430;SDS011;71905;47.466;19.024;2024-02-04T11:53:42;0.68;;;0.50;;
42430;SDS011;71905;47.466;19.024;2024-02-04T11:56:10;1.35;;;0.65;;
42430;SDS011;71905;47.466;19.024;2024-02-04T11:58:40;1.27;;;0.60;;
42430;SDS011;71905;47.466;19.024;2024-02-04T12:01:09;2.20;;;0.60;;
42430;SDS011;71905;47.466;19.024;2024-02-04T12:03:38;1.00;;;0.60;;
42430;SDS011;71905;47.466;19.024;2024-02-04T12:06:07;0.88;;;0.47;;
42430;SDS011;71905;47.466;19.024;2024-02-04T12:08:37;0.93;;;0.50;;
42430;SDS011;71905;47.466;19.024;2024-02-04T12:11:07;2.55;;;0.70;;
42430;SDS011;71905;47.466;19.024;2024-02-04T12:13:38;0.90;;;0.47;;
42430;SDS011;71905;47.466;19.024;2024-02-04T12:16:09;1.67;;;0.60;;
42430;SDS011;71905;47.466;19.024;2024-02-04T12:18:47;2.10;;;0.70;;
42430;SDS011;71905;47.466;19.024;2024-02-04T12:21:15;1.58;;;0.60;;
42430;SDS011;71905;47.466;19.024;2024-02-04T12:23:43;1.70;;;0.63;;
42430;SDS011;71905;47.466;19.024;2024-02-04T12:26:13;1.60;;;0.77;;
42430;SDS011;71905;47.466;19.024;2024-02-04T12:28:41;3.47;;;0.77;;
42430;SDS011;71905;47.466;19.024;2024-02-04T12:31:15;2.42;;;0.80;;
42430;SDS011;71905;47.466;19.024;2024-02-04T12:33:51;0.80;;;0.50;;
42430;SDS011;71905;47.466;19.024;2024-02-04T12:36:21;1.95;;;0.57;;
42430;SDS011;71905;47.466;19.024;2024-02-04T12:38:52;3.08;;;0.60;;
42430;SDS011;71905;47.466;19.024;2024-02-04T12:41:23;2.20;;;0.70;;
42430;SDS011;71905;47.466;19.024;2024-02-04T12:43:52;1.05;;;0.60;;
42430;SDS011;71905;47.466;19.024;2024-02-04T12:46:21;1.42;;;0.80;;
42430;SDS011;71905;47.466;19.024;2024-02-04T12:48:52;2.95;;;0.98;;
42430;SDS011;71905;47.466;19.024;2024-02-04T12:51:24;6.97;;;1.42;;
42430;SDS011;71905;47.466;19.024;2024-02-04T12:54:03;3.13;;;1.08;;
42430;SDS011;71905;47.466;19.024;2024-02-04T12:56:43;2.25;;;0.90;;
42430;SDS011;71905;47.466;19.024;2024-02-04T12:59:23;2.42;;;0.95;;
42430;SDS011;71905;47.466;19.024;2024-02-04T13:01:53;2.45;;;0.98;;
42430;SDS011;71905;47.466;19.024;2024-02-04T13:04:22;4.25;;;1.13;;
42430;SDS011;71905;47.466;19.024;2024-02-04T13:06:51;2.10;;;1.00;;
42430;SDS011;71905;47.466;19.024;2024-02-04T13:09:19;1.50;;;0.80;;
42430;SDS011;71905;47.466;19.024;2024-02-04T13:11:51;1.63;;;0.70;;
42430;SDS011;71905;47.466;19.024;2024-02-04T13:14:19;2.38;;;0.80;;
42430;SDS011;71905;47.466;19.024;2024-02-04T13:16:48;2.72;;;0.70;;
42430;SDS011;71905;47.466;19.024;2024-02-04T13:19:17;1.25;;;0.70;;
42430;SDS011;71905;47.466;19.024;2024-02-04T13:21:45;1.30;;;0.63;;
42430;SDS011;71905;47.466;19.024;2024-02-04T13:24:13;3.35;;;0.90;;
42430;SDS011;71905;47.466;19.024;2024-02-04T13:26:42;3.42;;;0.80;;
42430;SDS011;71905;47.466;19.024;2024-02-04T13:29:11;1.95;;;0.60;;
42430;SDS011;71905;47.466;19.024;2024-02-04T13:31:39;1.85;;;0.77;;
42430;SDS011;71905;47.466;19.024;2024-02-04T13:34:08;1.42;;;0.63;;
42430;SDS011;71905;47.466;19.024;2024-02-04T13:36:36;1.17;;;0.60;;
42430;SDS011;71905;47.466;19.024;2024-02-04T13:39:05;1.50;;;0.80;;
42430;SDS011;71905;47.466;19.024;2024-02-04T13:41:33;2.30;;;0.70;;
42430;SDS011;71905;47.466;19.024;2024-02-04T13:44:02;1.60;;;0.40;;
42430;SDS011;71905;47.466;19.024;2024-02-04T13:46:35;1.45;;;0.60;;
42430;SDS011;71905;47.466;19.024;2024-02-04T13:49:05;1.90;;;0.85;;
42430;SDS011;71905;47.466;19.024;2024-02-04T13:51:33;1.13;;;0.68;;
42430;SDS011;71905;47.466;19.024;2024-02-04T13:54:10;1.45;;;0.50;;
42430;SDS011;71905;47.466;19.024;2024-02-04T13:56:44;1.17;;;0.52;;
42430;SDS011;71905;47.466;19.024;2024-02-04T13:59:12;0.75;;;0.47;;
42430;SDS011;71905;47.466;19.024;2024-02-04T14:01:42;2.55;;;0.70;;
42430;SDS011;71905;47.466;19.024;2024-02-04T14:04:10;1.42;;;0.50;;
42430;SDS011;71905;47.466;19.024;2024-02-04T14:06:38;1.60;;;0.63;;
42430;SDS011;71905;47.466;19.024;2024-02-04T14:09:07;2.22;;;0.50;;
42430;SDS011;71905;47.466;19.024;2024-02-04T14:11:34;1.00;;;0.50;;
42430;SDS011;71905;47.466;19.024;2024-02-04T14:14:03;0.95;;;0.60;;
42430;SDS011;71905;47.466;19.024;2024-02-04T14:16:31;1.88;;;0.70;;
42430;SDS011;71905;47.466;19.024;2024-02-04T14:19:02;1.40;;;0.60;;
42430;SDS011;71905;47.466;19.024;2024-02-04T14:21:30;1.17;;;0.52;;
42430;SDS011;71905;47.466;19.024;2024-02-04T14:23:58;2.17;;;1.40;;
42430;SDS011;71905;47.466;19.024;2024-02-04T14:26:27;0.90;;;0.50;;
42430;SDS011;71905;47.466;19.024;2024-02-04T14:28:55;0.60;;;0.32;;
42430;SDS011;71905;47.466;19.024;2024-02-04T14:31:24;1.23;;;0.47;;
42430;SDS011;71905;47.466;19.024;2024-02-04T14:33:52;0.95;;;0.52;;
42430;SDS011;71905;47.466;19.024;2024-02-04T14:36:22;1.40;;;0.70;;
42430;SDS011;71905;47.466;19.024;2024-02-04T14:38:50;1.05;;;0.60;;
42430;SDS011;71905;47.466;19.024;2024-02-04T14:41:18;1.00;;;0.50;;
42430;SDS011;71905;47.466;19.024;2024-02-04T14:43:46;1.15;;;0.60;;
42430;SDS011;71905;47.466;19.024;2024-02-04T14:46:23;1.38;;;0.70;;